Time;durP1;ratioP1;P1;durP2;ratioP2;P2;SDS_P1;SDS_P2;PMS_P1;PMS_P2;Temp;Humidity;BMP_temperature;BMP_pressure;BME280_temperature;BME280_humidity;BME280_pressure;Samples;Min_cycle;Max_cycle;Signal;HPM_P1;HPM_P2
2021/12/30 11:27:23;;;;;;;;;;;;;;;10.80;98.67;97640.78;4258215;27;10363;-70
2021/12/30 11:29:25;;;;;;;;;;;;;;;10.79;98.31;97652.34;4251370;27;5800;-72
2021/12/30 11:31:29;;;;;;;;;;;;;;;10.83;97.29;97640.41;4253934;27;5745;-72
2021/12/30 11:33:30;;;;;;;;;;;;;;;10.93;97.38;97635.72;4259007;27;5730;-70
2021/12/30 11:35:32;;;;;;;;;;;;;;;10.96;96.48;97638.00;4254523;27;6486;-71
2021/12/30 11:37:35;;;;;;;;;;;;;;;10.91;96.27;97632.44;4256392;27;5719;-71
2021/12/30 11:39:42;;;;;;;;;;;;;;;10.87;96.61;97628.47;4241220;27;5785;-71
2021/12/30 11:41:51;;;;;;;;;;;;;;;10.89;96.56;97623.03;4250935;27;5743;-71
2021/12/30 11:43:55;;;;;;;;;;;;;;;10.82;95.73;97633.47;4249749;27;5846;-73
2021/12/30 11:45:56;;;;;;;;;;;;;;;10.83;95.55;97629.84;4233789;27;5767;-71
2021/12/30 11:48:00;;;;;;;;;;;;;;;10.68;96.49;97634.22;4234560;27;5780;-77
2021/12/30 11:50:10;;;;;;;;;;;;;;;10.67;96.53;97637.88;4251873;27;5751;-77
2021/12/30 11:52:12;;;;;;;;;;;;;;;10.65;96.42;97634.56;4228716;27;5963;-76
2021/12/30 11:54:40;;;;;;;;;;;;;;;10.63;96.88;97628.59;4231321;27;5731;-77
2021/12/30 11:56:42;;;;;;;;;;;;;;;10.81;96.60;97629.19;4240214;27;5745;-76
2021/12/30 11:58:49;;;;;;;;;;;;;;;10.78;95.72;97624.25;4241984;27;5780;-73
2021/12/30 12:00:52;;;;;;;;;;;;;;;10.76;95.83;97623.59;4243034;27;5740;-76
2021/12/30 12:02:53;;;;;;;;;;;;;;;10.73;95.88;97621.28;4256898;27;5779;-76
2021/12/30 12:04:55;;;;;;;;;;;;;;;10.88;96.01;97627.50;4237018;27;5690;-78
2021/12/30 12:07:02;;;;;;;;;;;;;;;10.82;96.18;97630.84;4239160;27;5885;-75
2021/12/30 12:09:25;;;;;;;;;;;;;;;10.94;95.40;97628.63;4251222;27;5782;-74
2021/12/30 12:11:32;;;;;;;;;;;;;;;10.98;94.99;97629.91;4239619;27;5902;-75
2021/12/30 12:13:36;;;;;;;;;;;;;;;10.96;93.35;97634.53;4253902;27;6003;-73
2021/12/30 12:15:44;;;;;;;;;;;;;;;11.02;94.19;97631.22;4251540;27;5758;-72
2021/12/30 12:17:46;;;;;;;;;;;;;;;10.97;93.69;97634.38;4245737;27;5770;-74
2021/12/30 12:19:52;;;;;;;;;;;;;;;10.82;93.67;97628.19;4240154;27;5654;-73
2021/12/30 12:21:54;;;;;;;;;;;;;;;10.89;94.23;97621.22;4246882;27;6475;-74
2021/12/30 12:23:56;;;;;;;;;;;;;;;10.93;94.37;97619.84;4242683;27;5753;-74
2021/12/30 12:26:15;;;;;;;;;;;;;;;11.02;94.50;97613.50;4247190;27;5749;-74
2021/12/30 12:28:20;;;;;;;;;;;;;;;10.87;94.70;97617.91;4229651;27;5682;-75
2021/12/30 12:30:28;;;;;;;;;;;;;;;10.90;94.83;97614.09;4235048;28;5700;-73
2021/12/30 12:32:30;;;;;;;;;;;;;;;11.05;94.60;97618.44;4237353;27;5861;-73
2021/12/30 12:34:35;;;;;;;;;;;;;;;11.14;94.59;97616.56;4233140;28;5752;-74
2021/12/30 12:36:39;;;;;;;;;;;;;;;11.23;93.94;97614.69;4235409;27;5803;-72
2021/12/30 12:38:51;;;;;;;;;;;;;;;11.26;94.21;97614.34;4235042;28;5954;-72
2021/12/30 12:40:53;;;;;;;;;;;;;;;11.37;93.56;97616.56;4234832;28;6407;-72
2021/12/30 12:42:58;;;;;;;;;;;;;;;11.41;94.11;97611.72;4224006;28;6467;-72
2021/12/30 12:45:18;;;;;;;;;;;;;;;11.35;94.01;97618.56;4234751;28;5756;-72
2021/12/30 12:47:25;;;;;;;;;;;;;;;11.36;93.88;97606.97;4218276;27;5778;-72
2021/12/30 12:49:32;;;;;;;;;;;;;;;11.45;93.91;97608.56;4218042;28;5818;-74
2021/12/30 12:51:35;;;;;;;;;;;;;;;11.45;93.32;97605.91;4228161;28;5787;-72
2021/12/30 12:53:41;;;;;;;;;;;;;;;11.43;92.70;97615.84;4226013;27;5760;-72
2021/12/30 12:55:42;;;;;;;;;;;;;;;11.39;93.16;97614.56;4234657;27;5750;-72
2021/12/30 12:57:45;;;;;;;;;;;;;;;11.43;93.39;97613.19;4234738;28;5744;-73
2021/12/30 12:59:48;;;;;;;;;;;;;;;11.40;92.77;97602.97;4234700;27;5661;-74
2021/12/30 13:01:49;;;;;;;;;;;;;;;11.33;92.57;97608.16;4234673;27;5070;-73
2021/12/30 13:03:55;;;;;;;;;;;;;;;11.23;93.68;97610.22;4226830;28;5716;-73
2021/12/30 13:06:01;;;;;;;;;;;;;;;11.31;93.43;97607.50;4225139;28;5741;-73
2021/12/30 13:08:02;;;;;;;;;;;;;;;11.20;90.93;97612.38;4233280;28;5731;-74
2021/12/30 13:10:05;;;;;;;;;;;;;;;10.98;91.14;97606.09;4231878;28;5830;-73
2021/12/30 13:12:07;;;;;;;;;;;;;;;10.90;91.31;97604.34;4234289;27;5877;-73
2021/12/30 13:14:23;;;;;;;;;;;;;;;10.65;92.44;97598.38;4233367;27;5815;-73
2021/12/30 13:16:36;;;;;;;;;;;;;;;10.77;93.10;97604.09;4234407;27;5118;-73
2021/12/30 13:18:37;;;;;;;;;;;;;;;10.68;93.30;97603.31;4234572;27;5749;-73
2021/12/30 13:20:44;;;;;;;;;;;;;;;10.79;93.50;97604.75;4234325;28;5848;-73
2021/12/30 13:22:46;;;;;;;;;;;;;;;10.74;93.44;97599.94;4234275;27;5760;-73
2021/12/30 13:25:00;;;;;;;;;;;;;;;10.69;93.98;97601.50;4230510;27;6444;-72
2021/12/30 13:27:13;;;;;;;;;;;;;;;10.80;93.58;97598.44;4234221;27;5873;-72
2021/12/30 13:29:27;;;;;;;;;;;;;;;10.79;93.50;97600.28;4232909;28;5601;-72
2021/12/30 13:31:31;;;;;;;;;;;;;;;10.75;93.80;97604.25;4217818;28;5797;-73
2021/12/30 13:33:33;;;;;;;;;;;;;;;10.77;93.83;97590.88;4216420;28;5766;-73
2021/12/30 13:35:39;;;;;;;;;;;;;;;10.96;93.56;97590.41;4217440;28;5767;-71
2021/12/30 13:37:50;;;;;;;;;;;;;;;11.04;93.64;97584.22;4229091;28;5741;-71
2021/12/30 13:39:55;;;;;;;;;;;;;;;11.16;93.50;97588.09;4222963;28;5672;-71
2021/12/30 13:41:57;;;;;;;;;;;;;;;11.20;92.99;97585.91;4235369;27;5880;-72
2021/12/30 13:44:07;;;;;;;;;;;;;;;11.23;93.56;97580.28;4231553;28;6262;-73
2021/12/30 13:46:10;;;;;;;;;;;;;;;11.30;93.09;97581.22;4227236;28;5788;-72
2021/12/30 13:48:25;;;;;;;;;;;;;;;11.38;93.31;97581.97;4233435;28;5123;-73
2021/12/30 13:50:27;;;;;;;;;;;;;;;11.45;93.02;97582.09;4232356;28;5821;-73
2021/12/30 13:52:30;;;;;;;;;;;;;;;11.49;92.68;97588.66;4233489;27;5756;-72
2021/12/30 13:54:32;;;;;;;;;;;;;;;11.43;93.05;97584.06;4233662;28;5756;-72
2021/12/30 13:56:34;;;;;;;;;;;;;;;11.49;92.79;97582.53;4233468;28;5757;-74
2021/12/30 13:58:42;;;;;;;;;;;;;;;11.55;93.08;97584.47;4233560;28;5740;-72
2021/12/30 14:01:12;;;;;;;;;;;;;;;11.56;92.35;97586.94;4228194;28;5738;-72
2021/12/30 14:03:23;;;;;;;;;;;;;;;11.51;91.80;97585.81;4233476;27;5682;-72
2021/12/30 14:05:26;;;;;;;;;;;;;;;11.50;92.22;97586.84;4232052;28;5829;-72
2021/12/30 14:07:37;;;;;;;;;;;;;;;11.37;91.82;97592.75;4233119;28;5764;-73
2021/12/30 14:09:38;;;;;;;;;;;;;;;11.28;92.10;97591.16;4230043;28;5728;-73
2021/12/30 14:11:49;;;;;;;;;;;;;;;11.05;93.35;97594.63;4225192;28;5767;-72
2021/12/30 14:13:51;;;;;;;;;;;;;;;11.17;92.64;97589.75;4231316;27;5845;-73
2021/12/30 14:15:54;;;;;;;;;;;;;;;11.21;92.66;97600.78;4233175;28;5780;-73
2021/12/30 14:18:05;;;;;;;;;;;;;;;11.18;91.84;97601.16;4232428;27;5662;-72
2021/12/30 14:20:07;;;;;;;;;;;;;;;11.12;92.41;97613.28;4230676;28;5700;-72
2021/12/30 14:22:10;;;;;;;;;;;;;;;11.20;92.11;97621.16;4207893;28;5789;-73
2021/12/30 14:24:20;;;;;;;;;;;;;;;11.08;91.91;97615.44;4216449;28;5774;-72
2021/12/30 14:26:30;;;;;;;;;;;;;;;11.15;92.13;97623.50;4227326;28;5702;-73
2021/12/30 14:28:32;;;;;;;;;;;;;;;11.17;91.67;97624.16;4231879;28;5707;-72
2021/12/30 14:30:36;;;;;;;;;;;;;;;11.12;91.50;97623.88;4222866;28;5691;-72
2021/12/30 14:32:38;;;;;;;;;;;;;;;11.08;91.33;97623.38;4216084;28;5687;-72
2021/12/30 14:34:43;;;;;;;;;;;;;;;10.86;91.91;97626.81;4228153;28;5951;-72
2021/12/30 14:37:11;;;;;;;;;;;;;;;11.07;92.30;97632.31;4233150;28;5752;-72
2021/12/30 14:39:27;;;;;;;;;;;;;;;11.16;91.72;97632.28;4233140;28;5820;-73
2021/12/30 14:41:33;;;;;;;;;;;;;;;11.12;92.13;97628.34;4216029;28;5765;-73
2021/12/30 14:44:11;;;;;;;;;;;;;;;11.20;91.93;97626.44;4229143;28;5764;-73
2021/12/30 14:46:13;;;;;;;;;;;;;;;11.24;91.71;97632.22;4214596;28;5632;-72
2021/12/30 14:48:29;;;;;;;;;;;;;;;11.24;91.73;97637.53;4231492;28;5687;-73
2021/12/30 14:50:39;;;;;;;;;;;;;;;11.20;91.79;97646.78;4232658;27;5748;-72
2021/12/30 14:52:45;;;;;;;;;;;;;;;11.19;92.23;97639.84;4229479;28;5746;-71
2021/12/30 14:54:50;;;;;;;;;;;;;;;11.28;91.54;97639.63;4216253;28;5769;-72
2021/12/30 14:56:52;;;;;;;;;;;;;;;11.32;91.81;97637.44;4215955;28;5778;-73
2021/12/30 14:58:54;;;;;;;;;;;;;;;11.36;91.60;97639.56;4214271;28;5819;-72
2021/12/30 15:00:56;;;;;;;;;;;;;;;11.37;91.47;97638.56;4214066;28;7096;-72
2021/12/30 15:03:00;;;;;;;;;;;;;;;11.38;91.43;97642.03;4230250;28;5752;-73
2021/12/30 15:05:02;;;;;;;;;;;;;;;11.34;91.46;97643.41;4232646;27;5748;-72
2021/12/30 15:07:05;;;;;;;;;;;;;;;11.20;92.37;97646.78;4232615;27;5769;-72
2021/12/30 15:09:07;;;;;;;;;;;;;;;11.23;92.39;97654.41;4232653;27;5749;-72
2021/12/30 15:11:08;;;;;;;;;;;;;;;11.34;91.97;97651.34;4215649;27;5849;-73
2021/12/30 15:13:10;;;;;;;;;;;;;;;11.39;91.82;97648.97;4231089;27;5820;-73
2021/12/30 15:15:21;;;;;;;;;;;;;;;11.40;91.79;97647.16;4234159;27;5727;-73
2021/12/30 15:17:23;;;;;;;;;;;;;;;11.38;91.72;97652.63;4242808;27;5818;-72
2021/12/30 15:19:24;;;;;;;;;;;;;;;11.43;91.71;97652.09;4235410;27;5719;-72
2021/12/30 15:21:26;;;;;;;;;;;;;;;11.37;91.42;97651.81;4230301;27;5737;-72
2021/12/30 15:23:29;;;;;;;;;;;;;;;11.26;91.90;97654.03;4229599;27;5753;-72
2021/12/30 15:25:33;;;;;;;;;;;;;;;11.18;92.58;97656.72;4222473;28;5798;-72
2021/12/30 15:27:36;;;;;;;;;;;;;;;11.20;92.68;97660.03;4217239;28;5873;-71
2021/12/30 15:29:38;;;;;;;;;;;;;;;11.05;92.78;97658.13;4225031;28;5684;-73
2021/12/30 15:31:39;;;;;;;;;;;;;;;11.04;93.25;97658.31;4228742;27;5687;-72
2021/12/30 15:33:43;;;;;;;;;;;;;;;11.04;93.36;97659.13;4230122;27;5661;-72
2021/12/30 15:35:49;;;;;;;;;;;;;;;11.04;93.47;97653.84;4240038;27;5644;-72
2021/12/30 15:37:53;;;;;;;;;;;;;;;11.14;93.41;97663.38;4219616;28;5937;-72
2021/12/30 15:39:55;;;;;;;;;;;;;;;11.08;93.38;97660.44;4226470;27;7171;-72
2021/12/30 15:42:10;;;;;;;;;;;;;;;11.02;93.55;97666.44;4228510;27;5115;-73
2021/12/30 15:44:12;;;;;;;;;;;;;;;11.11;93.43;97663.75;4232845;27;5661;-73
2021/12/30 15:46:14;;;;;;;;;;;;;;;11.17;93.10;97660.38;4241005;27;5629;-73
2021/12/30 15:48:16;;;;;;;;;;;;;;;11.20;93.11;97660.84;4233015;27;5605;-72
2021/12/30 15:50:18;;;;;;;;;;;;;;;11.17;93.46;97663.03;4228883;27;5689;-72
2021/12/30 15:52:20;;;;;;;;;;;;;;;11.22;93.13;97663.34;4207701;22;5639;-72
2021/12/30 15:54:23;;;;;;;;;;;;;;;11.21;93.30;97659.03;4193313;28;5661;-72
2021/12/30 15:56:25;;;;;;;;;;;;;;;11.19;93.41;97656.56;4193970;28;5635;-66
2021/12/30 15:58:26;;;;;;;;;;;;;;;11.09;94.49;97654.13;4180014;28;5894;-67
2021/12/30 16:00:35;;;;;;;;;;;;;;;11.08;94.83;97664.91;4194847;28;6045;-66
2021/12/30 16:02:38;;;;;;;;;;;;;;;11.15;94.31;97662.38;4175754;28;5957;-66
2021/12/30 16:04:40;;;;;;;;;;;;;;;11.15;94.30;97667.69;4178226;28;5719;-66
2021/12/30 16:06:42;;;;;;;;;;;;;;;11.17;95.02;97661.22;4200366;28;5866;-66
2021/12/30 16:08:45;;;;;;;;;;;;;;;11.15;94.93;97662.38;4198671;28;5646;-66
2021/12/30 16:10:47;;;;;;;;;;;;;;;11.19;94.65;97663.66;4195768;28;5690;-66
2021/12/30 16:12:50;;;;;;;;;;;;;;;11.23;94.34;97665.00;4196492;28;5624;-66
2021/12/30 16:14:52;;;;;;;;;;;;;;;11.21;94.70;97665.16;4201209;28;5639;-66
2021/12/30 16:16:54;;;;;;;;;;;;;;;11.18;94.91;97665.50;4200577;28;5644;-67
2021/12/30 16:18:57;;;;;;;;;;;;;;;11.22;94.70;97661.53;4183549;28;5825;-66
2021/12/30 16:21:01;;;;;;;;;;;;;;;11.22;94.61;97666.00;4184668;28;5722;-66
2021/12/30 16:23:04;;;;;;;;;;;;;;;11.16;95.11;97664.03;4182508;28;5712;-66
2021/12/30 16:25:06;;;;;;;;;;;;;;;11.13;95.27;97673.16;4180382;28;5736;-65
2021/12/30 16:27:09;;;;;;;;;;;;;;;11.18;94.84;97677.91;4178206;28;5823;-66
2021/12/30 16:29:18;;;;;;;;;;;;;;;11.14;95.04;97672.16;4184316;28;5730;-66
2021/12/30 16:31:21;;;;;;;;;;;;;;;11.20;94.79;97670.59;4182248;28;5815;-66
2021/12/30 16:33:23;;;;;;;;;;;;;;;11.14;95.09;97671.31;4186847;28;5718;-65
2021/12/30 16:35:25;;;;;;;;;;;;;;;11.16;95.03;97671.97;4184555;28;5812;-66
2021/12/30 16:37:27;;;;;;;;;;;;;;;11.15;95.22;97671.16;4185582;28;5697;-67
2021/12/30 16:39:29;;;;;;;;;;;;;;;11.21;94.63;97681.06;4181578;28;5714;-67
2021/12/30 16:41:31;;;;;;;;;;;;;;;11.22;94.33;97684.53;4201645;28;5700;-67
2021/12/30 16:43:37;;;;;;;;;;;;;;;11.05;95.21;97679.31;4182077;28;5722;-67
2021/12/30 16:45:40;;;;;;;;;;;;;;;11.05;95.28;97679.31;4183304;28;5709;-67
2021/12/30 16:47:42;;;;;;;;;;;;;;;11.07;95.09;97674.66;4185520;28;5713;-67
2021/12/30 16:49:44;;;;;;;;;;;;;;;11.04;95.21;97677.66;4183439;28;5738;-67
2021/12/30 16:51:45;;;;;;;;;;;;;;;11.04;95.18;97674.19;4184762;28;5805;-66
2021/12/30 16:53:49;;;;;;;;;;;;;;;11.03;95.00;97669.91;4185335;28;5718;-67
2021/12/30 16:55:52;;;;;;;;;;;;;;;11.01;95.18;97669.25;4186439;28;5777;-67
2021/12/30 16:57:54;;;;;;;;;;;;;;;11.09;94.63;97675.31;4179509;28;5714;-67
2021/12/30 16:59:59;;;;;;;;;;;;;;;11.03;94.89;97677.84;4185437;28;5804;-69
2021/12/30 17:02:01;;;;;;;;;;;;;;;10.99;94.97;97669.44;4181656;28;5888;-67
2021/12/30 17:04:05;;;;;;;;;;;;;;;10.99;94.85;97680.03;4181562;28;5824;-68
2021/12/30 17:06:07;;;;;;;;;;;;;;;10.91;95.33;97674.75;4184460;28;5718;-67
2021/12/30 17:08:11;;;;;;;;;;;;;;;10.81;95.85;97676.78;4182032;28;6417;-68
2021/12/30 17:10:13;;;;;;;;;;;;;;;10.77;95.71;97678.97;4181601;28;5856;-68
2021/12/30 17:12:15;;;;;;;;;;;;;;;10.83;95.61;97672.16;4184092;28;5840;-67
2021/12/30 17:14:17;;;;;;;;;;;;;;;10.67;96.07;97677.53;4181982;28;5836;-67
2021/12/30 17:16:22;;;;;;;;;;;;;;;10.63;96.16;97677.03;4181751;28;6508;-67
2021/12/30 17:18:26;;;;;;;;;;;;;;;10.76;95.54;97679.16;4177242;28;5732;-69
2021/12/30 17:20:28;;;;;;;;;;;;;;;10.68;95.85;97685.28;4182834;28;5730;-68
2021/12/30 17:22:30;;;;;;;;;;;;;;;10.77;95.44;97681.63;4182438;28;5699;-69
2021/12/30 17:24:34;;;;;;;;;;;;;;;10.69;95.60;97676.34;4195541;28;5099;-69
2021/12/30 17:26:39;;;;;;;;;;;;;;;10.71;95.79;97673.53;4184706;28;5816;-67
2021/12/30 17:28:42;;;;;;;;;;;;;;;10.68;95.57;97674.72;4160759;28;6407;-68
2021/12/30 17:30:45;;;;;;;;;;;;;;;10.72;95.49;97675.19;4194328;28;5623;-68
2021/12/30 17:32:47;;;;;;;;;;;;;;;10.70;95.31;97674.53;4193700;28;5855;-67
2021/12/30 17:34:49;;;;;;;;;;;;;;;10.65;95.85;97674.25;4202862;28;6291;-66
2021/12/30 17:36:50;;;;;;;;;;;;;;;10.61;96.23;97672.91;4203254;28;6335;-67
2021/12/30 17:38:52;;;;;;;;;;;;;;;10.65;95.79;97674.25;4203189;28;5734;-67
2021/12/30 17:40:54;;;;;;;;;;;;;;;10.57;96.33;97674.28;4203766;28;5195;-67
2021/12/30 17:42:56;;;;;;;;;;;;;;;10.70;95.82;97679.81;4202990;28;7668;-67
2021/12/30 17:44:58;;;;;;;;;;;;;;;10.85;95.17;97672.78;4202973;28;5651;-67
2021/12/30 17:47:01;;;;;;;;;;;;;;;10.85;94.61;97682.56;4202930;28;5654;-67
2021/12/30 17:49:06;;;;;;;;;;;;;;;10.89;94.66;97682.06;4185195;28;5713;-67
2021/12/30 17:51:10;;;;;;;;;;;;;;;10.93;94.75;97671.94;4202825;28;5637;-67
2021/12/30 17:53:12;;;;;;;;;;;;;;;11.02;93.96;97677.00;4203272;28;5630;-68
2021/12/30 17:55:14;;;;;;;;;;;;;;;11.03;93.78;97680.50;4203099;28;5633;-67
2021/12/30 17:57:21;;;;;;;;;;;;;;;10.90;94.04;97682.88;4202860;28;5705;-67
2021/12/30 17:59:23;;;;;;;;;;;;;;;10.98;93.97;97681.00;4185057;28;5730;-67
2021/12/30 18:01:25;;;;;;;;;;;;;;;10.98;93.75;97688.94;4202881;28;5693;-67
2021/12/30 18:03:27;;;;;;;;;;;;;;;10.96;93.86;97690.09;4202933;28;5637;-68
2021/12/30 18:05:29;;;;;;;;;;;;;;;10.92;93.43;97692.28;4185273;28;5725;-68
2021/12/30 18:07:31;;;;;;;;;;;;;;;10.94;93.52;97690.28;4168468;28;5749;-67
2021/12/30 18:09:35;;;;;;;;;;;;;;;10.89;93.61;97687.34;4185153;28;6577;-67
2021/12/30 18:11:36;;;;;;;;;;;;;;;10.91;93.39;97687.16;4201522;28;5638;-68
2021/12/30 18:13:38;;;;;;;;;;;;;;;10.88;93.37;97685.69;4202522;28;5623;-67
2021/12/30 18:15:40;;;;;;;;;;;;;;;10.93;93.56;97688.63;4202433;28;5635;-66
2021/12/30 18:17:43;;;;;;;;;;;;;;;10.95;92.85;97686.63;4202417;28;5658;-66
2021/12/30 18:19:45;;;;;;;;;;;;;;;10.90;93.31;97683.69;4202583;28;5042;-66
2021/12/30 18:21:49;;;;;;;;;;;;;;;10.89;93.33;97690.00;4202312;28;5626;-67
2021/12/30 18:23:50;;;;;;;;;;;;;;;10.85;93.12;97686.03;4202736;28;5626;-66
2021/12/30 18:25:52;;;;;;;;;;;;;;;10.81;93.57;97690.03;4184013;28;5828;-66
2021/12/30 18:27:54;;;;;;;;;;;;;;;10.79;93.29;97695.50;4184245;28;5706;-66
2021/12/30 18:29:56;;;;;;;;;;;;;;;10.58;94.03;97695.25;4202259;28;5674;-65
2021/12/30 18:32:01;;;;;;;;;;;;;;;10.54;94.54;97695.78;4202491;28;5633;-66
2021/12/30 18:34:03;;;;;;;;;;;;;;;10.66;93.87;97699.69;4202279;28;5745;-66
2021/12/30 18:36:05;;;;;;;;;;;;;;;10.65;93.74;97693.56;4202498;28;5626;-66
2021/12/30 18:38:06;;;;;;;;;;;;;;;10.67;93.76;97699.50;4185595;28;5836;-66
2021/12/30 18:40:10;;;;;;;;;;;;;;;10.71;93.51;97699.97;4202850;28;5679;-66
2021/12/30 18:42:12;;;;;;;;;;;;;;;10.70;93.42;97695.69;4185344;28;5705;-66
2021/12/30 18:44:14;;;;;;;;;;;;;;;10.72;93.33;97699.81;4185346;28;5732;-66
2021/12/30 18:46:15;;;;;;;;;;;;;;;10.72;93.05;97697.16;4201835;28;5814;-67
2021/12/30 18:48:18;;;;;;;;;;;;;;;10.73;93.30;97698.81;4202550;28;5714;-67
2021/12/30 18:50:19;;;;;;;;;;;;;;;10.69;93.10;97696.69;4202244;28;6413;-67
2021/12/30 18:52:22;;;;;;;;;;;;;;;10.52;93.61;97703.03;4184382;28;5713;-67
2021/12/30 18:54:24;;;;;;;;;;;;;;;10.59;93.38;97699.53;4202384;28;5700;-67
2021/12/30 18:56:27;;;;;;;;;;;;;;;10.65;93.11;97698.88;4183607;28;5737;-67
2021/12/30 18:58:29;;;;;;;;;;;;;;;10.66;93.21;97691.75;4201895;28;5637;-67
2021/12/30 19:00:46;;;;;;;;;;;;;;;10.63;92.90;97697.34;4202095;28;5626;-67
2021/12/30 19:02:49;;;;;;;;;;;;;;;10.66;92.97;97694.41;4202024;28;5630;-66
2021/12/30 19:04:51;;;;;;;;;;;;;;;10.52;92.79;97690.63;4201930;28;6301;-66
2021/12/30 19:06:55;;;;;;;;;;;;;;;10.57;92.79;97698.88;4201939;28;5626;-67
2021/12/30 19:08:57;;;;;;;;;;;;;;;10.50;93.00;97698.72;4201827;28;5630;-67
2021/12/30 19:10:59;;;;;;;;;;;;;;;10.51;93.07;97694.25;4183758;28;5752;-67
2021/12/30 19:13:11;;;;;;;;;;;;;;;10.61;93.01;97694.06;4200914;28;5775;-67
2021/12/30 19:15:19;;;;;;;;;;;;;;;10.60;92.80;97698.53;4184066;28;5776;-67
2021/12/30 19:17:20;;;;;;;;;;;;;;;10.60;93.05;97689.78;4201694;28;5781;-67
2021/12/30 19:19:22;;;;;;;;;;;;;;;10.44;93.03;97694.13;4184004;28;5749;-67
2021/12/30 19:21:24;;;;;;;;;;;;;;;10.43;93.34;97687.22;4201563;28;5630;-67
2021/12/30 19:23:25;;;;;;;;;;;;;;;10.48;92.95;97692.78;4184748;28;5764;-67
2021/12/30 19:25:28;;;;;;;;;;;;;;;10.48;92.84;97689.31;4201694;28;6298;-67
2021/12/30 19:27:29;;;;;;;;;;;;;;;10.47;93.04;97691.16;4183887;28;5709;-67
2021/12/30 19:29:31;;;;;;;;;;;;;;;10.57;92.73;97692.78;4183626;28;5737;-67
2021/12/30 19:31:35;;;;;;;;;;;;;;;10.55;92.54;97690.31;4185157;28;6522;-67
2021/12/30 19:33:37;;;;;;;;;;;;;;;10.55;92.41;97697.41;4184831;28;5733;-67
2021/12/30 19:35:41;;;;;;;;;;;;;;;10.54;92.62;97693.94;4185053;28;5710;-67
2021/12/30 19:37:46;;;;;;;;;;;;;;;10.45;92.58;97690.50;4186659;28;5725;-67
2021/12/30 19:39:51;;;;;;;;;;;;;;;10.29;93.00;97700.28;4188519;28;5725;-67
2021/12/30 19:41:53;;;;;;;;;;;;;;;10.39;92.97;97695.63;4170678;28;5743;-67
2021/12/30 19:43:55;;;;;;;;;;;;;;;10.42;92.63;97704.06;4188498;28;5738;-67
2021/12/30 19:45:57;;;;;;;;;;;;;;;10.36;92.84;97704.72;4188784;28;5773;-67
2021/12/30 19:48:03;;;;;;;;;;;;;;;10.18;93.16;97701.44;4188247;28;5702;-67
2021/12/30 19:50:07;;;;;;;;;;;;;;;10.11;93.65;97714.50;4186902;28;5721;-67
2021/12/30 19:52:09;;;;;;;;;;;;;;;10.27;93.17;97713.66;4187244;28;5824;-67
2021/12/30 19:54:11;;;;;;;;;;;;;;;10.04;93.71;97715.31;4187123;28;5706;-67
2021/12/30 19:56:12;;;;;;;;;;;;;;;10.11;93.80;97716.31;4188295;28;5741;-67
2021/12/30 19:58:16;;;;;;;;;;;;;;;10.24;93.13;97711.38;4188208;28;5817;-67
2021/12/30 20:00:21;;;;;;;;;;;;;;;10.26;92.94;97709.38;4188543;28;5702;-67
2021/12/30 20:02:23;;;;;;;;;;;;;;;10.23;93.10;97711.53;4203332;28;5707;-67
2021/12/30 20:04:25;;;;;;;;;;;;;;;10.26;92.86;97706.72;4188010;28;5815;-67
2021/12/30 20:06:28;;;;;;;;;;;;;;;10.15;93.03;97707.06;4186803;28;5728;-67
2021/12/30 20:08:30;;;;;;;;;;;;;;;10.04;92.00;97715.31;4187840;28;5741;-67
2021/12/30 20:10:33;;;;;;;;;;;;;;;9.83;91.58;97705.28;4188620;28;5710;-67
2021/12/30 20:12:35;;;;;;;;;;;;;;;9.72;93.03;97716.16;4187892;28;5706;-67
2021/12/30 20:14:37;;;;;;;;;;;;;;;9.93;92.67;97714.69;4186902;28;5787;-67
2021/12/30 20:16:43;;;;;;;;;;;;;;;10.07;91.88;97723.72;4187983;28;5854;-67
2021/12/30 20:18:46;;;;;;;;;;;;;;;10.10;91.95;97725.25;4182182;28;5872;-67
2021/12/30 20:20:50;;;;;;;;;;;;;;;10.14;91.50;97723.91;4185547;28;5834;-67
2021/12/30 20:22:51;;;;;;;;;;;;;;;10.13;91.54;97730.19;4175871;28;5705;-67
2021/12/30 20:24:54;;;;;;;;;;;;;;;10.08;91.41;97729.84;4178593;28;5713;-67
2021/12/30 20:26:55;;;;;;;;;;;;;;;10.08;91.74;97732.47;4172762;28;5742;-68
2021/12/30 20:28:57;;;;;;;;;;;;;;;10.10;91.92;97734.00;4183299;28;5823;-67
2021/12/30 20:31:00;;;;;;;;;;;;;;;10.08;91.76;97741.25;4175410;28;5693;-67
2021/12/30 20:33:02;;;;;;;;;;;;;;;10.09;91.91;97742.91;4177933;28;6422;-68
2021/12/30 20:35:06;;;;;;;;;;;;;;;10.14;91.90;97745.03;4199888;28;5707;-68
2021/12/30 20:37:08;;;;;;;;;;;;;;;10.15;91.63;97751.97;4183950;28;5706;-69
2021/12/30 20:39:12;;;;;;;;;;;;;;;10.08;91.85;97738.63;4186354;28;5844;-68
2021/12/30 20:41:14;;;;;;;;;;;;;;;10.12;91.81;97745.22;4181955;28;5717;-71
2021/12/30 20:43:19;;;;;;;;;;;;;;;10.15;91.85;97746.69;4188946;28;5781;-69
2021/12/30 20:45:23;;;;;;;;;;;;;;;10.14;91.40;97745.03;4178039;28;5779;-69
2021/12/30 20:47:25;;;;;;;;;;;;;;;10.15;90.69;97746.69;4195981;28;5717;-73
2021/12/30 20:49:27;;;;;;;;;;;;;;;10.12;91.11;97742.56;4182438;28;5959;-70
2021/12/30 20:51:29;;;;;;;;;;;;;;;9.95;91.32;97750.66;4186492;28;5725;-70
2021/12/30 20:53:32;;;;;;;;;;;;;;;10.01;91.03;97747.38;4185279;28;5935;-70
2021/12/30 20:55:35;;;;;;;;;;;;;;;10.04;90.76;97752.31;4183957;28;6462;-70
2021/12/30 20:57:45;;;;;;;;;;;;;;;9.94;90.26;97755.13;4182542;28;5911;-68
2021/12/30 20:59:47;;;;;;;;;;;;;;;9.67;91.08;97758.91;4186534;28;5914;-69
2021/12/30 21:01:50;;;;;;;;;;;;;;;9.80;91.08;97764.53;4186333;28;5804;-69
2021/12/30 21:03:52;;;;;;;;;;;;;;;9.88;90.98;97759.25;4184385;28;5849;-69
2021/12/30 21:05:53;;;;;;;;;;;;;;;9.98;90.51;97760.91;4186903;28;5721;-69
2021/12/30 21:07:56;;;;;;;;;;;;;;;9.90;90.04;97757.28;4184751;28;5725;-69
2021/12/30 21:09:58;;;;;;;;;;;;;;;9.82;90.55;97759.09;4185443;28;5750;-70
2021/12/30 21:12:00;;;;;;;;;;;;;;;9.80;90.69;97764.53;4186029;28;5819;-67
2021/12/30 21:14:02;;;;;;;;;;;;;;;9.78;90.94;97763.88;4182033;28;5734;-67
2021/12/30 21:16:04;;;;;;;;;;;;;;;9.78;91.07;97765.69;4185665;28;5745;-73
2021/12/30 21:18:06;;;;;;;;;;;;;;;9.66;90.36;97773.09;4184638;28;5733;-71
2021/12/30 21:20:13;;;;;;;;;;;;;;;9.53;91.23;97773.59;4179793;28;5844;-71
2021/12/30 21:22:15;;;;;;;;;;;;;;;9.49;91.45;97776.69;4151351;28;5759;-70
2021/12/30 21:24:17;;;;;;;;;;;;;;;9.54;91.46;97777.88;4192433;22;5634;-69
2021/12/30 21:26:20;;;;;;;;;;;;;;;9.41;91.58;97768.78;4183600;28;5659;-69
2021/12/30 21:28:22;;;;;;;;;;;;;;;9.43;91.93;97777.38;4183619;28;5729;-70
2021/12/30 21:30:27;;;;;;;;;;;;;;;9.47;91.59;97770.75;4165369;28;5759;-69
2021/12/30 21:32:32;;;;;;;;;;;;;;;9.67;91.05;97773.94;4167800;28;6808;-69
2021/12/30 21:34:34;;;;;;;;;;;;;;;9.51;91.33;97769.44;4166158;28;5748;-69
2021/12/30 21:36:36;;;;;;;;;;;;;;;9.27;92.63;97778.97;4180012;28;5706;-70
2021/12/30 21:38:38;;;;;;;;;;;;;;;9.37;92.58;97778.00;4183549;28;5638;-74
2021/12/30 21:40:43;;;;;;;;;;;;;;;9.58;92.07;97778.38;4167004;28;5744;-76
2021/12/30 21:42:45;;;;;;;;;;;;;;;9.67;91.66;97774.75;4178972;28;6410;-76
2021/12/30 21:44:47;;;;;;;;;;;;;;;9.81;91.11;97778.56;4181750;28;5654;-72
2021/12/30 21:46:50;;;;;;;;;;;;;;;9.86;91.14;97782.38;4168070;28;5728;-76
2021/12/30 21:49:02;;;;;;;;;;;;;;;9.86;90.56;97785.03;4150955;28;6613;-75
2021/12/30 21:51:05;;;;;;;;;;;;;;;9.84;91.03;97792.25;4150126;28;5766;-70
2021/12/30 21:53:07;;;;;;;;;;;;;;;9.95;90.76;97792.91;4183899;28;5733;-79
2021/12/30 21:55:11;;;;;;;;;;;;;;;10.01;90.87;97800.19;4181026;28;5643;-77
2021/12/30 21:57:12;;;;;;;;;;;;;;;10.04;90.07;97791.94;4150759;28;5838;-78
2021/12/30 21:59:14;;;;;;;;;;;;;;;9.92;90.30;97784.34;4185485;28;5753;-74
2021/12/30 22:01:16;;;;;;;;;;;;;;;9.99;90.73;97792.44;4183227;28;6001;-77
2021/12/30 22:03:19;;;;;;;;;;;;;;;10.02;89.91;97794.75;4185549;28;5638;-78
2021/12/30 22:05:26;;;;;;;;;;;;;;;9.98;89.85;97798.72;4185924;28;5642;-73
2021/12/30 22:07:28;;;;;;;;;;;;;;;9.93;89.69;97796.56;4152178;28;5776;-74
2021/12/30 22:09:30;;;;;;;;;;;;;;;9.85;90.83;97793.06;4169621;28;5843;-80
